createdAt,value
2018-08-19T00:01:02.140Z,20.52
2018-08-19T00:03:32.894Z,20.66
2018-08-19T00:06:03.268Z,20.68
2018-08-19T00:08:34.531Z,20.69
2018-08-19T00:11:09.932Z,20.40
2018-08-19T00:13:41.036Z,20.49
2018-08-19T00:16:12.156Z,20.48
2018-08-19T00:18:43.412Z,20.41
2018-08-19T00:21:14.127Z,20.43
2018-08-19T00:23:49.420Z,20.33
2018-08-19T00:26:19.801Z,20.20
2018-08-19T00:28:50.600Z,20.10
2018-08-19T00:31:21.056Z,20.00
2018-08-19T00:33:51.531Z,19.89
2018-08-19T00:36:32.512Z,20.08
2018-08-19T00:39:03.077Z,20.05
2018-08-19T00:41:33.571Z,20.06
2018-08-19T00:44:04.261Z,20.05
2018-08-19T00:46:34.733Z,20.20
2018-08-19T00:49:05.243Z,20.27
2018-08-19T00:51:36.820Z,20.21
2018-08-19T00:54:07.334Z,20.33
2018-08-19T00:56:38.059Z,20.23
2018-08-19T00:59:11.203Z,20.16
2018-08-19T01:01:41.665Z,20.19
2018-08-19T01:04:12.547Z,20.12
2018-08-19T01:06:48.305Z,20.07
2018-08-19T01:09:18.977Z,20.02
2018-08-19T01:11:49.743Z,20.06
2018-08-19T01:14:20.809Z,20.04
2018-08-19T01:16:51.473Z,20.07
2018-08-19T01:19:22.011Z,20.00
2018-08-19T01:21:54.147Z,20.15
2018-08-19T01:24:24.946Z,19.81
2018-08-19T01:26:55.817Z,19.71
2018-08-19T01:29:41.112Z,19.74
2018-08-19T01:32:12.203Z,19.61
2018-08-19T01:34:46.131Z,19.52
2018-08-19T01:37:16.563Z,19.52
2018-08-19T01:39:47.936Z,19.48
2018-08-19T01:42:18.351Z,19.46
2018-08-19T01:44:48.791Z,19.71
2018-08-19T01:47:19.303Z,19.61
2018-08-19T01:49:49.753Z,19.43
2018-08-19T01:52:20.131Z,19.38
2018-08-19T01:54:50.653Z,19.39
2018-08-19T01:57:21.195Z,19.34
2018-08-19T01:59:52.601Z,19.53
2018-08-19T02:02:23.095Z,19.35
2018-08-19T02:04:56.883Z,19.33
2018-08-19T02:07:27.681Z,19.46
2018-08-19T02:10:03.957Z,19.43
2018-08-19T02:12:39.411Z,19.25
2018-08-19T02:15:11.189Z,19.20
2018-08-19T02:18:14.425Z,19.19
2018-08-19T02:20:44.950Z,19.29
2018-08-19T02:23:15.506Z,19.29
2018-08-19T02:25:48.099Z,19.20
2018-08-19T02:28:22.369Z,19.22
2018-08-19T02:31:02.769Z,19.18
2018-08-19T02:33:36.224Z,19.23
2018-08-19T02:36:08.052Z,19.27
2018-08-19T02:38:39.093Z,19.33
2018-08-19T02:41:09.632Z,19.30
2018-08-19T02:43:50.507Z,19.21
2018-08-19T02:46:21.075Z,19.10
2018-08-19T02:48:55.450Z,19.30
2018-08-19T02:51:25.852Z,19.31
2018-08-19T02:53:57.017Z,19.24
2018-08-19T02:56:27.419Z,19.36
2018-08-19T02:58:58.209Z,19.28
2018-08-19T03:01:28.683Z,19.12
2018-08-19T03:04:00.235Z,19.07
2018-08-19T03:06:30.719Z,19.09
2018-08-19T03:09:01.159Z,19.04
2018-08-19T03:11:31.662Z,18.97
2018-08-19T03:14:02.413Z,18.88
2018-08-19T03:16:34.952Z,18.93
2018-08-19T03:19:05.397Z,18.86
2018-08-19T03:21:35.821Z,18.73
2018-08-19T03:24:06.393Z,18.79
2018-08-19T03:26:36.806Z,18.82
2018-08-19T03:29:14.158Z,18.79
2018-08-19T03:31:47.602Z,18.77
2018-08-19T03:34:18.218Z,18.84
2018-08-19T03:36:48.854Z,18.87
2018-08-19T03:39:19.219Z,18.87
2018-08-19T03:41:49.679Z,18.84
2018-08-19T03:44:21.569Z,18.78
2018-08-19T03:46:52.047Z,18.78
2018-08-19T03:49:24.144Z,18.79
2018-08-19T03:51:54.610Z,18.67
2018-08-19T03:54:25.172Z,18.69
2018-08-19T03:56:56.314Z,18.76
2018-08-19T03:59:26.718Z,18.82
2018-08-19T04:01:57.098Z,18.80
2018-08-19T04:04:27.654Z,19.00
2018-08-19T04:06:58.395Z,19.00
2018-08-19T04:09:28.802Z,18.95
2018-08-19T04:12:12.172Z,18.90
2018-08-19T04:14:42.568Z,18.75
2018-08-19T04:17:49.528Z,18.84
2018-08-19T04:20:19.978Z,18.92
2018-08-19T04:22:50.328Z,18.83
2018-08-19T04:25:25.840Z,18.79
2018-08-19T04:27:56.790Z,18.75
2018-08-19T04:30:27.265Z,18.70
2018-08-19T04:32:57.766Z,18.60
2018-08-19T04:35:27.701Z,18.57
2018-08-19T04:37:58.166Z,18.75
2018-08-19T04:40:29.042Z,18.79
2018-08-19T04:42:59.502Z,18.70
2018-08-19T04:45:29.648Z,18.76
2018-08-19T04:48:00.230Z,18.67
2018-08-19T04:50:30.152Z,18.71
2018-08-19T04:53:01.568Z,18.82
2018-08-19T04:55:32.135Z,18.85
2018-08-19T04:58:02.547Z,18.93
2018-08-19T05:00:32.950Z,18.99
2018-08-19T05:03:02.834Z,19.13
2018-08-19T05:05:33.312Z,19.12
2018-08-19T05:08:04.461Z,19.12
2018-08-19T05:10:35.109Z,19.19
2018-08-19T05:13:06.584Z,19.31
2018-08-19T05:15:37.381Z,19.47
2018-08-19T05:18:08.934Z,19.67
2018-08-19T05:20:39.598Z,20.46
2018-08-19T05:23:10.134Z,21.41
2018-08-19T05:25:45.639Z,22.09
2018-08-19T05:28:19.670Z,23.08
2018-08-19T05:30:50.356Z,23.93
2018-08-19T05:33:20.764Z,24.49
2018-08-19T05:35:51.806Z,25.06
2018-08-19T05:38:22.181Z,25.59
2018-08-19T05:40:57.684Z,25.91
2018-08-19T05:43:29.376Z,26.50
2018-08-19T05:46:01.010Z,26.36
2018-08-19T05:48:31.819Z,26.61
2018-08-19T05:51:02.239Z,27.33
2018-08-19T05:53:33.110Z,27.50
2018-08-19T05:56:03.529Z,27.57
2018-08-19T05:58:33.743Z,28.04
2018-08-19T06:01:04.301Z,28.34
2018-08-19T06:03:34.726Z,28.39
2018-08-19T06:06:05.991Z,28.39
2018-08-19T06:08:36.170Z,28.39
2018-08-19T06:11:06.359Z,28.39
2018-08-19T06:13:36.455Z,28.82
2018-08-19T06:16:07.009Z,28.85
2018-08-19T06:18:37.523Z,28.87
2018-08-19T06:21:09.425Z,28.97
2018-08-19T06:23:40.606Z,28.74
2018-08-19T06:26:11.626Z,28.61
2018-08-19T06:28:42.749Z,28.57
2018-08-19T06:31:14.171Z,28.97
2018-08-19T06:33:44.891Z,29.16
2018-08-19T06:36:16.187Z,29.39
2018-08-19T06:38:47.032Z,29.37
2018-08-19T06:41:17.575Z,29.42
2018-08-19T06:43:48.010Z,29.08
2018-08-19T06:46:18.385Z,29.46
2018-08-19T06:48:48.947Z,29.70
2018-08-19T06:51:19.336Z,29.47
2018-08-19T06:53:49.891Z,29.67
2018-08-19T06:56:20.637Z,29.50
2018-08-19T06:58:51.131Z,29.57
2018-08-19T07:01:21.473Z,29.51
2018-08-19T07:03:55.930Z,28.69
2018-08-19T07:06:26.507Z,28.72
2018-08-19T07:08:57.261Z,28.48
2018-08-19T07:11:27.721Z,28.50
2018-08-19T07:13:58.364Z,28.64
2018-08-19T07:16:28.955Z,28.87
2018-08-19T07:18:59.653Z,28.75
2018-08-19T07:21:30.037Z,28.34
2018-08-19T07:24:00.390Z,28.10
2018-08-19T07:26:30.791Z,27.66
2018-08-19T07:29:01.085Z,26.91
2018-08-19T07:31:31.747Z,26.19
2018-08-19T07:34:02.080Z,26.58
2018-08-19T07:36:32.483Z,26.73
2018-08-19T07:39:02.870Z,26.98
2018-08-19T07:41:33.258Z,27.05
2018-08-19T07:44:03.785Z,26.27
2018-08-19T07:46:34.417Z,25.86
2018-08-19T07:49:04.801Z,25.43
2018-08-19T07:51:35.922Z,25.04
2018-08-19T07:54:06.953Z,24.87
2018-08-19T07:56:37.740Z,24.68
2018-08-19T07:59:10.103Z,24.62
2018-08-19T08:01:41.074Z,24.62
2018-08-19T08:04:11.838Z,24.53
2018-08-19T08:06:42.547Z,24.53
2018-08-19T08:09:13.239Z,24.21
2018-08-19T08:11:43.699Z,24.44
2018-08-19T08:14:14.667Z,24.84
2018-08-19T08:16:50.219Z,24.71
2018-08-19T08:19:21.093Z,25.03
2018-08-19T08:21:51.991Z,25.50
2018-08-19T08:24:22.795Z,26.14
2018-08-19T08:26:56.220Z,26.46
2018-08-19T08:29:26.973Z,26.99
2018-08-19T08:31:58.578Z,26.77
2018-08-19T08:34:30.092Z,26.72
2018-08-19T08:37:05.690Z,26.00
2018-08-19T08:39:37.152Z,25.81
2018-08-19T08:42:08.191Z,25.41
2018-08-19T08:44:38.736Z,25.54
2018-08-19T08:47:11.538Z,25.54
2018-08-19T08:49:47.858Z,25.38
2018-08-19T08:52:25.383Z,25.89
2018-08-19T08:54:57.936Z,26.60
2018-08-19T08:57:28.812Z,26.89
2018-08-19T08:59:59.597Z,26.35
2018-08-19T09:02:30.050Z,26.10
2018-08-19T09:05:00.794Z,25.63
2018-08-19T09:07:31.324Z,25.48
2018-08-19T09:10:01.824Z,25.27
2018-08-19T09:12:52.803Z,25.16
2018-08-19T09:15:23.346Z,25.61
2018-08-19T09:17:54.271Z,25.58
2018-08-19T09:20:24.797Z,24.88
2018-08-19T09:22:55.248Z,25.24
2018-08-19T09:25:25.994Z,25.62
2018-08-19T09:27:56.480Z,26.10
2018-08-19T09:30:44.258Z,26.00
2018-08-19T09:33:15.200Z,26.29
2018-08-19T09:35:45.612Z,26.52
2018-08-19T09:38:20.682Z,26.19
2018-08-19T09:41:47.384Z,26.56
2018-08-19T09:44:17.788Z,25.98
2018-08-19T09:46:48.114Z,26.12
2018-08-19T09:49:18.553Z,26.61
2018-08-19T09:51:49.379Z,27.16
2018-08-19T09:54:25.966Z,27.33
2018-08-19T09:56:56.706Z,27.30
2018-08-19T09:59:27.140Z,27.11
2018-08-19T10:01:58.212Z,26.55
2018-08-19T10:04:28.870Z,27.02
2018-08-19T10:07:05.044Z,27.44
2018-08-19T10:09:36.264Z,27.54
2018-08-19T10:12:07.038Z,27.31
2018-08-19T10:14:37.750Z,27.17
2018-08-19T10:17:08.625Z,27.63
2018-08-19T10:19:39.206Z,27.96
2018-08-19T10:22:09.881Z,27.99
2018-08-19T10:24:40.239Z,27.41
2018-08-19T10:27:10.606Z,26.76
2018-08-19T10:29:41.034Z,26.81
2018-08-19T10:32:11.470Z,26.61
2018-08-19T10:34:41.933Z,27.16
2018-08-19T10:37:12.340Z,27.57
2018-08-19T10:39:42.728Z,27.70
2018-08-19T10:42:23.790Z,27.44
2018-08-19T10:44:54.197Z,27.32
2018-08-19T10:47:24.875Z,27.02
2018-08-19T10:49:59.730Z,27.37
2018-08-19T10:52:31.503Z,27.60
2018-08-19T10:55:02.605Z,27.61
2018-08-19T10:57:33.078Z,27.27
2018-08-19T11:00:03.502Z,27.24
2018-08-19T11:02:34.282Z,27.60
2018-08-19T11:05:04.695Z,27.79
2018-08-19T11:07:35.405Z,27.46
2018-08-19T11:10:20.810Z,27.97
2018-08-19T11:12:54.972Z,27.75
2018-08-19T11:15:49.903Z,27.64
2018-08-19T11:18:28.690Z,27.66
2018-08-19T11:21:03.606Z,27.55
2018-08-19T11:23:37.813Z,27.96
2018-08-19T11:26:09.541Z,27.25
2018-08-19T11:28:48.874Z,27.50
2018-08-19T11:31:25.770Z,28.13
2018-08-19T11:34:00.025Z,28.12
2018-08-19T11:36:37.091Z,28.01
2018-08-19T11:39:14.680Z,27.90
2018-08-19T11:41:45.107Z,28.45
2018-08-19T11:44:17.044Z,28.70
2018-08-19T11:46:47.532Z,29.13
2018-08-19T11:49:19.619Z,28.30
2018-08-19T11:51:57.489Z,27.87
2018-08-19T11:54:28.564Z,27.90
2018-08-19T11:57:07.982Z,27.74
2018-08-19T11:59:40.707Z,27.75
2018-08-19T12:02:13.629Z,27.54
2018-08-19T12:04:44.578Z,27.33
2018-08-19T12:07:15.079Z,27.59
2018-08-19T12:10:00.161Z,27.94
2018-08-19T12:12:46.119Z,28.77
2018-08-19T12:15:16.353Z,29.44
2018-08-19T12:17:46.509Z,28.70
2018-08-19T12:20:23.450Z,28.50
2018-08-19T12:22:54.150Z,28.25
2018-08-19T12:25:24.888Z,28.78
2018-08-19T12:27:55.378Z,28.78
2018-08-19T12:30:25.932Z,28.86
2018-08-19T12:33:11.667Z,28.80
2018-08-19T12:35:41.891Z,28.67
2018-08-19T12:38:13.084Z,28.76
2018-08-19T12:40:46.244Z,28.85
2018-08-19T12:43:16.763Z,29.42
2018-08-19T12:45:47.182Z,28.97
2018-08-19T12:48:17.851Z,28.81
2018-08-19T12:50:52.972Z,29.02
2018-08-19T12:53:23.096Z,28.79
2018-08-19T12:55:53.564Z,28.93
2018-08-19T12:58:23.836Z,29.32
2018-08-19T13:00:54.016Z,29.59
2018-08-19T13:03:28.127Z,29.91
2018-08-19T13:06:04.455Z,29.92
2018-08-19T13:08:35.162Z,29.85
2018-08-19T13:11:07.428Z,30.19
2018-08-19T13:13:37.603Z,30.25
2018-08-19T13:16:08.389Z,29.70
2018-08-19T13:18:41.297Z,29.48
2018-08-19T13:21:16.133Z,28.89
2018-08-19T13:23:46.409Z,28.88
2018-08-19T13:26:16.534Z,28.92
2018-08-19T13:28:52.451Z,29.57
2018-08-19T13:31:29.717Z,30.02
2018-08-19T13:34:00.844Z,29.57
2018-08-19T13:36:31.006Z,29.29
2018-08-19T13:39:01.426Z,28.76
2018-08-19T13:41:31.889Z,28.69
2018-08-19T13:44:02.345Z,28.53
2018-08-19T13:46:32.851Z,29.01
2018-08-19T13:49:03.198Z,29.20
2018-08-19T13:51:33.394Z,28.99
2018-08-19T13:54:04.308Z,29.08
2018-08-19T13:56:34.385Z,29.27
2018-08-19T13:59:04.582Z,28.95
2018-08-19T14:01:34.980Z,29.18
2018-08-19T14:04:05.188Z,29.24
2018-08-19T14:06:35.280Z,29.19
2018-08-19T14:09:06.750Z,29.27
2018-08-19T14:11:36.842Z,29.52
2018-08-19T14:14:07.341Z,29.87
2018-08-19T14:16:37.458Z,30.01
2018-08-19T14:19:07.805Z,30.41
2018-08-19T14:21:38.293Z,30.65
2018-08-19T14:24:08.329Z,30.65
2018-08-19T14:26:38.396Z,30.75
2018-08-19T14:29:08.754Z,30.99
2018-08-19T14:31:38.953Z,30.96
2018-08-19T14:34:09.114Z,31.03
2018-08-19T14:36:39.300Z,30.85
2018-08-19T14:39:09.371Z,30.92
2018-08-19T14:41:39.493Z,30.89
2018-08-19T14:44:09.582Z,30.72
2018-08-19T14:46:40.021Z,30.37
2018-08-19T14:49:10.357Z,30.30
2018-08-19T14:51:58.803Z,30.52
2018-08-19T14:54:29.503Z,30.72
2018-08-19T14:57:00.738Z,30.75
2018-08-19T14:59:31.261Z,30.54
2018-08-19T15:02:01.540Z,30.52
2018-08-19T15:04:31.894Z,30.59
2018-08-19T15:07:02.096Z,30.60
2018-08-19T15:09:35.312Z,30.52
2018-08-19T15:12:15.084Z,30.65
2018-08-19T15:14:45.398Z,30.60
2018-08-19T15:17:15.623Z,30.59
2018-08-19T15:19:50.139Z,30.48
2018-08-19T15:22:20.692Z,30.38
2018-08-19T15:24:51.314Z,30.33
2018-08-19T15:27:21.866Z,30.12
2018-08-19T15:29:54.262Z,30.00
2018-08-19T15:32:25.547Z,29.94
2018-08-19T15:34:56.182Z,29.90
2018-08-19T15:37:26.309Z,29.89
2018-08-19T15:39:56.475Z,29.90
2018-08-19T15:42:26.708Z,30.02
2018-08-19T15:44:56.849Z,30.16
2018-08-19T15:47:26.915Z,30.03
2018-08-19T15:50:13.927Z,30.20
2018-08-19T15:52:44.839Z,30.01
2018-08-19T15:55:15.188Z,29.89
2018-08-19T15:57:45.676Z,29.94
2018-08-19T16:00:15.804Z,30.13
2018-08-19T16:02:45.891Z,29.74
2018-08-19T16:05:17.068Z,29.57
2018-08-19T16:07:47.597Z,29.66
2018-08-19T16:10:17.932Z,29.80
2018-08-19T16:12:51.204Z,29.84
2018-08-19T16:15:25.322Z,29.86
2018-08-19T16:17:56.975Z,29.92
2018-08-19T16:20:27.195Z,30.01
2018-08-19T16:22:57.396Z,29.85
2018-08-19T16:25:27.552Z,29.82
2018-08-19T16:27:58.289Z,29.81
2018-08-19T16:30:28.418Z,29.81
2018-08-19T16:32:58.513Z,29.85
2018-08-19T16:35:28.722Z,29.92
2018-08-19T16:37:58.858Z,29.83
2018-08-19T16:40:30.153Z,29.81
2018-08-19T16:43:00.211Z,29.79
2018-08-19T16:45:30.383Z,29.76
2018-08-19T16:48:00.540Z,29.70
2018-08-19T16:50:31.237Z,29.58
2018-08-19T16:53:01.434Z,29.50
2018-08-19T16:55:31.546Z,29.40
2018-08-19T16:58:01.693Z,29.37
2018-08-19T17:00:31.824Z,29.26
2018-08-19T17:03:06.543Z,29.18
2018-08-19T17:05:36.917Z,29.10
2018-08-19T17:08:07.831Z,28.69
2018-08-19T17:10:37.974Z,28.48
2018-08-19T17:13:08.173Z,28.40
2018-08-19T17:15:38.425Z,27.97
2018-08-19T17:18:09.150Z,27.88
2018-08-19T17:24:16.167Z,27.76
2018-08-19T17:26:47.032Z,27.68
2018-08-19T17:29:19.351Z,27.70
2018-08-19T17:31:49.826Z,27.57
2018-08-19T17:34:20.657Z,27.66
2018-08-19T17:40:29.587Z,27.49
2018-08-19T17:43:00.563Z,27.51
2018-08-19T17:45:31.013Z,27.45
2018-08-19T17:48:01.615Z,27.32
2018-08-19T17:50:32.421Z,27.12
2018-08-19T17:53:03.325Z,27.12
2018-08-19T17:55:33.825Z,27.09
2018-08-19T17:58:04.465Z,26.95
2018-08-19T18:00:34.965Z,26.84
2018-08-19T18:06:41.988Z,26.49
2018-08-19T18:09:16.580Z,26.54
2018-08-19T18:11:53.649Z,26.49
2018-08-19T18:14:23.993Z,26.37
2018-08-19T18:16:54.550Z,26.31
2018-08-19T18:19:24.955Z,26.22
2018-08-19T18:21:55.412Z,26.19
2018-08-19T18:24:25.819Z,26.18
2018-08-19T18:26:56.552Z,26.14
2018-08-19T18:29:32.403Z,26.03
2018-08-19T18:32:02.799Z,26.01
2018-08-19T18:34:34.163Z,26.13
2018-08-19T18:37:04.717Z,26.22
2018-08-19T18:39:35.189Z,26.09
2018-08-19T18:42:05.775Z,26.13
2018-08-19T18:44:36.622Z,26.10
2018-08-19T18:47:08.060Z,26.04
2018-08-19T18:49:38.395Z,26.02
2018-08-19T18:52:14.033Z,26.19
2018-08-19T18:54:44.513Z,26.02
2018-08-19T18:57:14.876Z,26.03
2018-08-19T18:59:45.240Z,25.96
2018-08-19T19:02:15.627Z,25.91
2018-08-19T19:04:46.261Z,25.90
2018-08-19T19:07:16.781Z,25.81
2018-08-19T19:09:51.019Z,25.83
2018-08-19T19:12:23.627Z,25.75
2018-08-19T19:14:54.377Z,25.74
2018-08-19T19:17:24.828Z,25.70
2018-08-19T19:19:55.248Z,25.68
2018-08-19T19:22:26.026Z,25.59
2018-08-19T19:24:56.477Z,25.54
2018-08-19T19:27:26.949Z,25.45
2018-08-19T19:30:02.765Z,25.42
2018-08-19T19:32:33.187Z,25.36
2018-08-19T19:35:10.022Z,25.35
2018-08-19T19:37:41.083Z,25.27
2018-08-19T19:43:47.767Z,25.19
2018-08-19T19:46:18.545Z,25.11
2018-08-19T19:48:49.229Z,25.19
2018-08-19T19:51:19.673Z,24.99
2018-08-19T19:53:50.287Z,24.96
2018-08-19T19:56:20.937Z,24.85
2018-08-19T19:58:51.345Z,24.75
2018-08-19T20:01:21.752Z,24.66
2018-08-19T20:03:54.364Z,24.57
2018-08-19T20:06:25.771Z,24.57
2018-08-19T20:09:00.028Z,24.49
2018-08-19T20:11:31.399Z,24.45
2018-08-19T20:14:03.156Z,24.43
2018-08-19T20:16:33.585Z,24.49
2018-08-19T20:19:05.258Z,24.52
2018-08-19T20:21:37.266Z,24.61
2018-08-19T20:24:07.824Z,24.65
2018-08-19T20:26:38.332Z,24.67
2018-08-19T20:29:08.930Z,24.66
2018-08-19T20:31:39.700Z,24.74
2018-08-19T20:34:10.240Z,24.67
2018-08-19T20:36:40.611Z,24.57
2018-08-19T20:39:11.360Z,24.64
2018-08-19T20:41:41.732Z,24.50
2018-08-19T20:44:12.269Z,24.39
2018-08-19T20:46:48.395Z,24.32
2018-08-19T20:49:18.774Z,24.36
2018-08-19T20:51:49.214Z,24.38
2018-08-19T20:54:19.613Z,24.38
2018-08-19T20:56:50.127Z,24.37
2018-08-19T20:59:37.895Z,24.41
2018-08-19T21:02:09.517Z,24.29
2018-08-19T21:04:40.724Z,24.18
2018-08-19T21:07:11.158Z,24.13
2018-08-19T21:09:42.072Z,24.10
2018-08-19T21:12:12.724Z,23.93
2018-08-19T21:14:43.213Z,23.87
2018-08-19T21:17:13.816Z,24.01
2018-08-19T21:19:45.262Z,23.99
2018-08-19T21:22:15.978Z,24.06
2018-08-19T21:24:46.408Z,23.94
2018-08-19T21:27:16.904Z,23.79
2018-08-19T21:29:47.428Z,23.78
2018-08-19T21:32:17.954Z,23.82
2018-08-19T21:34:49.058Z,23.69
2018-08-19T21:37:27.508Z,23.81
2018-08-19T21:39:58.044Z,23.69
2018-08-19T21:42:28.486Z,23.68
2018-08-19T21:44:58.935Z,23.73
2018-08-19T21:47:29.770Z,23.73
2018-08-19T21:50:00.808Z,23.78
2018-08-19T21:52:31.363Z,23.54
2018-08-19T21:55:02.302Z,23.47
2018-08-19T21:57:32.656Z,23.54
2018-08-19T22:00:03.174Z,23.41
2018-08-19T22:03:39.653Z,23.38
2018-08-19T22:06:48.123Z,23.19
2018-08-19T22:09:33.560Z,23.12
2018-08-19T22:12:04.592Z,23.03
2018-08-19T22:14:35.084Z,23.01
2018-08-19T22:17:09.708Z,22.97
2018-08-19T22:19:41.059Z,22.95
2018-08-19T22:22:11.682Z,23.00
2018-08-19T22:24:42.203Z,22.96
2018-08-19T22:27:17.348Z,22.96
2018-08-19T22:29:49.374Z,22.92
2018-08-19T22:32:21.588Z,22.92
2018-08-19T22:34:52.062Z,22.91
2018-08-19T22:37:23.302Z,22.85
2018-08-19T22:39:53.868Z,22.75
2018-08-19T22:42:24.508Z,22.75
2018-08-19T22:44:55.684Z,22.80
2018-08-19T22:47:26.150Z,22.75
2018-08-19T22:49:58.468Z,22.64
2018-08-19T22:52:29.123Z,22.65
2018-08-19T22:55:00.177Z,22.71
2018-08-19T22:57:30.634Z,22.68
2018-08-19T23:00:01.445Z,22.51
2018-08-19T23:02:31.916Z,22.47
2018-08-19T23:05:02.444Z,22.42
2018-08-19T23:07:32.980Z,22.44
2018-08-19T23:10:03.730Z,22.35
2018-08-19T23:12:34.332Z,22.41
2018-08-19T23:15:21.176Z,22.48
2018-08-19T23:17:51.640Z,22.47
2018-08-19T23:20:22.180Z,22.38
2018-08-19T23:22:52.836Z,22.44
2018-08-19T23:25:23.294Z,22.31
2018-08-19T23:27:54.400Z,22.20
2018-08-19T23:30:25.706Z,22.13
2018-08-19T23:32:56.125Z,22.16
2018-08-19T23:35:27.378Z,22.05
2018-08-19T23:37:57.906Z,21.93
2018-08-19T23:40:28.498Z,21.95
2018-08-19T23:42:58.949Z,21.93
2018-08-19T23:45:29.564Z,21.90
2018-08-19T23:47:59.997Z,21.95
2018-08-19T23:50:30.786Z,22.01
2018-08-19T23:53:02.057Z,22.11
2018-08-19T23:55:35.209Z,22.14
2018-08-19T23:58:06.001Z,22.21
